createdAt,value
2022-10-16T00:01:36.070Z,14.50
2022-10-16T00:04:04.526Z,14.50
2022-10-16T00:06:32.853Z,14.60
2022-10-16T00:09:04.147Z,14.60
2022-10-16T00:11:34.236Z,14.70
2022-10-16T00:14:02.779Z,14.70
2022-10-16T00:16:32.057Z,14.70
2022-10-16T00:18:59.968Z,14.80
2022-10-16T00:21:28.376Z,14.80
2022-10-16T00:23:56.895Z,14.80
2022-10-16T00:26:24.760Z,14.80
2022-10-16T00:28:53.001Z,14.80
2022-10-16T00:31:23.847Z,14.90
2022-10-16T00:33:53.406Z,14.90
2022-10-16T00:36:22.337Z,14.90
2022-10-16T00:38:53.850Z,14.90
2022-10-16T00:41:22.226Z,14.90
2022-10-16T00:43:50.909Z,14.90
2022-10-16T00:46:20.570Z,15.00
2022-10-16T00:48:50.987Z,15.00
2022-10-16T00:51:22.755Z,15.00
2022-10-16T00:53:51.780Z,15.00
2022-10-16T00:56:19.821Z,15.00
2022-10-16T00:58:47.794Z,15.00
2022-10-16T01:01:17.866Z,15.00
2022-10-16T01:03:46.104Z,15.00
2022-10-16T01:09:06.278Z,15.00
2022-10-16T01:11:36.412Z,14.90
2022-10-16T01:14:08.342Z,14.90
2022-10-16T01:16:37.878Z,14.90
2022-10-16T01:19:09.044Z,14.90
2022-10-16T01:21:40.770Z,14.90
2022-10-16T01:24:10.691Z,14.90
2022-10-16T01:26:41.485Z,14.90
2022-10-16T01:29:14.111Z,14.80
2022-10-16T01:31:43.237Z,14.80
2022-10-16T01:34:15.152Z,14.70
2022-10-16T01:36:46.468Z,14.70
2022-10-16T01:39:15.237Z,14.70
2022-10-16T01:41:45.550Z,14.70
2022-10-16T01:44:18.297Z,14.80
2022-10-16T01:46:47.937Z,14.70
2022-10-16T01:49:16.327Z,14.70
2022-10-16T01:51:44.864Z,14.70
2022-10-16T01:54:13.392Z,14.70
2022-10-16T01:56:41.257Z,14.70
2022-10-16T01:59:11.902Z,14.70
2022-10-16T02:01:42.581Z,14.70
2022-10-16T02:04:13.859Z,14.80
2022-10-16T02:06:41.685Z,14.80
2022-10-16T02:09:09.697Z,14.90
2022-10-16T02:11:37.463Z,14.90
2022-10-16T02:14:06.322Z,14.90
2022-10-16T02:16:35.356Z,15.00
2022-10-16T02:19:04.961Z,15.00
2022-10-16T02:21:35.675Z,14.90
2022-10-16T02:24:05.138Z,15.00
2022-10-16T02:26:34.750Z,15.00
2022-10-16T02:29:05.655Z,15.00
2022-10-16T02:31:35.147Z,15.10
2022-10-16T02:34:06.203Z,15.10
2022-10-16T02:36:34.590Z,15.10
2022-10-16T02:39:02.894Z,15.10
2022-10-16T02:41:30.625Z,15.10
2022-10-16T02:43:58.422Z,15.10
2022-10-16T02:46:26.183Z,15.10
2022-10-16T02:48:53.981Z,15.10
2022-10-16T02:51:23.093Z,15.10
2022-10-16T02:53:50.872Z,15.10
2022-10-16T02:58:47.412Z,15.10
2022-10-16T03:01:17.723Z,15.10
2022-10-16T03:03:45.621Z,15.10
2022-10-16T03:06:13.421Z,15.10
2022-10-16T03:08:42.634Z,15.10
2022-10-16T03:11:10.533Z,15.00
2022-10-16T03:13:38.288Z,14.90
2022-10-16T03:16:06.103Z,14.90
2022-10-16T03:18:33.913Z,14.90
2022-10-16T03:21:01.675Z,14.90
2022-10-16T03:25:59.979Z,14.90
2022-10-16T03:28:27.816Z,14.80
2022-10-16T03:30:55.717Z,14.70
2022-10-16T03:33:23.503Z,14.70
2022-10-16T03:35:54.952Z,14.70
2022-10-16T03:38:23.241Z,14.60
2022-10-16T03:40:51.080Z,14.60
2022-10-16T03:43:20.227Z,14.60
2022-10-16T03:45:48.043Z,14.60
2022-10-16T03:48:15.917Z,14.50
2022-10-16T03:50:43.675Z,14.50
2022-10-16T03:53:11.731Z,14.40
2022-10-16T03:55:39.507Z,14.40
2022-10-16T03:58:07.258Z,14.40
2022-10-16T04:00:36.425Z,14.30
2022-10-16T04:03:04.228Z,14.30
2022-10-16T04:05:32.025Z,14.30
2022-10-16T04:07:59.997Z,14.30
2022-10-16T04:10:27.795Z,14.30
2022-10-16T04:12:56.781Z,14.30
2022-10-16T04:15:24.946Z,14.40
2022-10-16T04:17:54.192Z,14.30
2022-10-16T04:20:24.336Z,14.40
2022-10-16T04:22:52.180Z,14.30
2022-10-16T04:25:19.976Z,14.30
2022-10-16T04:27:47.769Z,14.30
2022-10-16T04:30:17.696Z,14.30
2022-10-16T04:32:45.535Z,14.30
2022-10-16T04:35:14.690Z,14.30
2022-10-16T04:37:42.499Z,14.20
2022-10-16T04:40:10.589Z,14.10
2022-10-16T04:42:40.732Z,14.10
2022-10-16T04:45:12.045Z,14.10
2022-10-16T04:47:42.550Z,14.10
2022-10-16T04:50:10.496Z,14.10
2022-10-16T04:52:39.762Z,14.00
2022-10-16T04:55:08.059Z,14.00
2022-10-16T04:57:35.891Z,13.90
2022-10-16T05:00:04.077Z,13.90
2022-10-16T05:02:34.034Z,13.90
2022-10-16T05:05:01.890Z,13.80
2022-10-16T05:07:29.821Z,13.80
2022-10-16T05:09:59.109Z,13.80
2022-10-16T05:12:26.952Z,13.80
2022-10-16T05:14:59.304Z,13.80
2022-10-16T05:17:27.447Z,13.80
2022-10-16T05:19:55.547Z,13.80
2022-10-16T05:22:23.397Z,13.80
2022-10-16T05:24:51.244Z,13.70
2022-10-16T05:27:20.686Z,13.70
2022-10-16T05:29:48.883Z,13.80
2022-10-16T05:32:17.147Z,13.70
2022-10-16T05:34:45.493Z,13.80
2022-10-16T05:37:13.535Z,13.80
2022-10-16T05:39:41.333Z,13.80
2022-10-16T05:42:09.157Z,13.80
2022-10-16T05:44:38.368Z,13.80
2022-10-16T05:47:06.243Z,13.80
2022-10-16T05:49:36.784Z,13.80
2022-10-16T05:52:07.024Z,13.80
2022-10-16T05:54:34.814Z,13.80
2022-10-16T05:57:03.709Z,13.80
2022-10-16T05:59:31.661Z,13.80
2022-10-16T06:02:00.801Z,13.90
2022-10-16T06:04:28.579Z,13.90
2022-10-16T06:07:01.233Z,14.00
2022-10-16T06:09:29.077Z,14.00
2022-10-16T06:11:56.883Z,14.00
2022-10-16T06:14:24.644Z,14.00
2022-10-16T06:16:52.521Z,14.00
2022-10-16T06:19:21.610Z,14.10
2022-10-16T06:21:51.690Z,14.20
2022-10-16T06:24:19.488Z,14.20
2022-10-16T06:26:47.265Z,14.30
2022-10-16T06:29:15.022Z,14.30
2022-10-16T06:31:42.816Z,14.30
2022-10-16T06:34:11.694Z,14.40
2022-10-16T06:36:44.355Z,14.40
2022-10-16T06:39:12.219Z,14.50
2022-10-16T06:41:40.135Z,14.50
2022-10-16T06:44:16.932Z,14.60
2022-10-16T06:46:46.764Z,14.70
2022-10-16T06:49:16.859Z,14.70
2022-10-16T06:51:46.349Z,14.70
2022-10-16T06:54:14.128Z,14.70
2022-10-16T06:56:41.838Z,14.70
2022-10-16T06:59:09.694Z,14.70
2022-10-16T07:01:37.451Z,14.70
2022-10-16T07:04:05.271Z,14.80
2022-10-16T07:06:33.956Z,14.90
2022-10-16T07:09:04.959Z,15.00
2022-10-16T07:11:35.404Z,15.10
2022-10-16T07:14:03.342Z,15.40
2022-10-16T07:16:32.211Z,15.60
2022-10-16T07:19:01.186Z,16.00
2022-10-16T07:21:30.472Z,16.20
2022-10-16T07:23:59.232Z,16.20
2022-10-16T07:26:29.090Z,16.20
2022-10-16T07:28:57.512Z,16.10
2022-10-16T07:31:25.421Z,16.10
2022-10-16T07:33:53.220Z,16.20
2022-10-16T07:36:21.496Z,16.30
2022-10-16T07:38:49.557Z,16.30
2022-10-16T07:41:20.240Z,16.30
2022-10-16T07:43:52.335Z,16.30
2022-10-16T07:46:20.708Z,16.40
2022-10-16T07:48:49.081Z,16.40
2022-10-16T07:51:18.058Z,16.40
2022-10-16T07:53:45.880Z,16.50
2022-10-16T07:56:14.346Z,16.50
2022-10-16T07:58:42.386Z,16.60
2022-10-16T08:01:12.481Z,16.60
2022-10-16T08:03:40.329Z,16.50
2022-10-16T08:06:08.115Z,16.60
2022-10-16T08:08:36.244Z,16.60
2022-10-16T08:11:05.030Z,16.60
2022-10-16T08:13:34.893Z,16.50
2022-10-16T08:16:02.682Z,16.60
2022-10-16T08:18:31.737Z,16.60
2022-10-16T08:21:01.110Z,16.70
2022-10-16T08:23:29.212Z,16.70
2022-10-16T08:25:57.506Z,16.70
2022-10-16T08:28:25.401Z,16.80
2022-10-16T08:30:53.260Z,16.80
2022-10-16T08:33:21.065Z,16.80
2022-10-16T08:36:03.711Z,16.90
2022-10-16T08:38:32.841Z,17.10
2022-10-16T08:41:12.270Z,17.00
2022-10-16T08:43:49.480Z,17.00
2022-10-16T08:46:28.434Z,17.10
2022-10-16T08:48:56.741Z,17.10
2022-10-16T08:51:26.329Z,17.10
2022-10-16T08:53:56.363Z,17.10
2022-10-16T08:56:24.808Z,17.20
2022-10-16T08:58:56.528Z,17.10
2022-10-16T09:01:34.515Z,17.10
2022-10-16T09:04:13.290Z,17.00
2022-10-16T09:06:46.448Z,17.00
2022-10-16T09:09:26.834Z,17.00
2022-10-16T09:11:59.088Z,17.10
2022-10-16T09:14:42.391Z,17.30
2022-10-16T09:17:18.955Z,17.50
2022-10-16T09:19:52.093Z,17.70
2022-10-16T09:22:24.272Z,17.80
2022-10-16T09:24:53.690Z,17.60
2022-10-16T09:27:22.187Z,17.60
2022-10-16T09:29:50.007Z,17.70
2022-10-16T09:32:19.732Z,17.70
2022-10-16T09:34:49.310Z,17.80
2022-10-16T09:37:20.141Z,17.90
2022-10-16T09:39:48.487Z,18.00
2022-10-16T09:42:18.344Z,18.00
2022-10-16T09:44:49.609Z,17.90
2022-10-16T09:47:19.064Z,17.80
2022-10-16T09:49:52.950Z,17.90
2022-10-16T09:52:21.154Z,18.00
2022-10-16T09:54:54.511Z,18.10
2022-10-16T09:57:24.422Z,18.10
2022-10-16T09:59:53.033Z,18.00
2022-10-16T10:02:22.066Z,17.90
2022-10-16T10:04:54.900Z,18.00
2022-10-16T10:07:25.663Z,18.10
2022-10-16T10:09:54.072Z,18.20
2022-10-16T10:12:26.876Z,18.30
2022-10-16T10:14:57.029Z,18.30
2022-10-16T10:17:25.940Z,18.40
2022-10-16T10:19:55.279Z,18.40
2022-10-16T10:22:31.602Z,18.40
2022-10-16T10:25:06.891Z,18.50
2022-10-16T10:27:40.880Z,18.70
2022-10-16T10:30:11.864Z,18.60
2022-10-16T10:32:43.242Z,18.60
2022-10-16T10:35:17.014Z,18.60
2022-10-16T10:38:00.317Z,18.60
2022-10-16T10:40:32.279Z,18.70
2022-10-16T10:43:03.289Z,18.80
2022-10-16T10:45:36.232Z,18.80
2022-10-16T10:48:19.335Z,18.90
2022-10-16T10:50:51.529Z,19.10
2022-10-16T10:53:23.495Z,19.20
2022-10-16T10:55:54.273Z,19.30
2022-10-16T10:58:40.050Z,19.30
2022-10-16T11:01:11.802Z,19.60
2022-10-16T11:03:48.531Z,19.80
2022-10-16T11:06:18.491Z,19.70
2022-10-16T11:08:50.095Z,19.80
2022-10-16T11:11:20.933Z,19.90
2022-10-16T11:13:54.091Z,20.20
2022-10-16T11:16:25.819Z,20.20
2022-10-16T11:18:57.227Z,20.20
2022-10-16T11:21:30.259Z,20.20
2022-10-16T11:24:01.365Z,19.90
2022-10-16T11:26:30.961Z,20.00
2022-10-16T11:29:00.098Z,20.20
2022-10-16T11:31:34.505Z,20.10
2022-10-16T11:34:05.669Z,19.80
2022-10-16T11:36:37.291Z,19.60
2022-10-16T11:39:09.342Z,19.50
2022-10-16T11:41:39.178Z,19.40
2022-10-16T11:44:15.999Z,19.30
2022-10-16T11:47:00.722Z,19.40
2022-10-16T11:49:39.465Z,19.50
2022-10-16T11:54:49.600Z,19.70
2022-10-16T11:57:20.872Z,19.60
2022-10-16T11:59:50.073Z,19.40
2022-10-16T12:02:35.844Z,19.30
2022-10-16T12:05:08.837Z,19.10
2022-10-16T12:07:39.119Z,19.00
2022-10-16T12:10:26.753Z,19.00
2022-10-16T12:12:55.615Z,19.00
2022-10-16T12:15:40.943Z,19.00
2022-10-16T12:18:23.759Z,18.90
2022-10-16T12:20:59.814Z,19.20
2022-10-16T12:23:27.759Z,19.50
2022-10-16T12:25:56.406Z,19.80
2022-10-16T12:28:28.362Z,20.00
2022-10-16T12:30:57.418Z,20.10
2022-10-16T12:33:27.676Z,20.10
2022-10-16T12:35:55.885Z,20.10
2022-10-16T12:38:27.473Z,20.20
2022-10-16T12:41:00.383Z,20.20
2022-10-16T12:43:30.202Z,20.10
2022-10-16T12:46:01.798Z,20.00
2022-10-16T12:48:42.371Z,20.00
2022-10-16T12:51:24.313Z,20.20
2022-10-16T12:54:00.235Z,20.20
2022-10-16T12:56:33.499Z,20.20
2022-10-16T12:59:05.617Z,20.30
2022-10-16T13:01:38.575Z,20.30
2022-10-16T13:04:13.358Z,20.30
2022-10-16T13:06:45.453Z,20.30
2022-10-16T13:09:40.433Z,20.30
2022-10-16T13:12:20.506Z,20.20
2022-10-16T13:14:58.975Z,20.20
2022-10-16T13:17:35.196Z,20.30
2022-10-16T13:20:08.615Z,20.50
2022-10-16T13:22:41.919Z,20.50
2022-10-16T13:25:16.686Z,20.30
2022-10-16T13:27:48.782Z,20.10
2022-10-16T13:30:18.448Z,20.10
2022-10-16T13:32:47.997Z,20.00
2022-10-16T13:35:25.783Z,19.90
2022-10-16T13:37:53.510Z,19.80
2022-10-16T13:40:22.991Z,19.80
2022-10-16T13:42:51.514Z,19.90
2022-10-16T13:45:20.194Z,19.90
2022-10-16T13:47:48.100Z,19.90
2022-10-16T13:50:16.794Z,19.90
2022-10-16T13:52:46.299Z,19.90
2022-10-16T13:55:14.789Z,19.90
2022-10-16T13:57:42.974Z,19.70
2022-10-16T14:00:20.497Z,19.70
2022-10-16T14:02:52.629Z,19.70
2022-10-16T14:05:20.514Z,19.60
2022-10-16T14:07:52.035Z,19.50
2022-10-16T14:10:24.813Z,19.40
2022-10-16T14:13:00.176Z,19.30
2022-10-16T14:15:28.366Z,19.40
2022-10-16T14:17:56.284Z,19.40
2022-10-16T14:20:26.518Z,19.50
2022-10-16T14:23:02.217Z,19.40
2022-10-16T14:25:31.676Z,19.50
2022-10-16T14:30:29.864Z,19.40
2022-10-16T14:32:58.549Z,19.40
2022-10-16T14:35:28.123Z,19.30
2022-10-16T14:37:56.310Z,19.20
2022-10-16T14:40:27.335Z,19.30
2022-10-16T14:42:58.004Z,19.30
2022-10-16T14:45:28.219Z,19.30
2022-10-16T14:47:57.212Z,19.20
2022-10-16T14:50:25.102Z,19.30
2022-10-16T14:52:52.973Z,19.20
2022-10-16T14:55:21.134Z,19.20
2022-10-16T14:57:50.291Z,19.20
2022-10-16T15:00:20.150Z,19.10
2022-10-16T15:02:49.282Z,19.10
2022-10-16T15:05:18.902Z,19.10
2022-10-16T15:07:47.364Z,19.10
2022-10-16T15:10:15.623Z,19.00
2022-10-16T15:12:45.699Z,18.90
2022-10-16T15:15:30.337Z,19.00
2022-10-16T15:17:58.439Z,19.00
2022-10-16T15:20:27.010Z,18.90
2022-10-16T15:22:54.866Z,18.80
2022-10-16T15:25:30.033Z,18.70
2022-10-16T15:27:57.888Z,18.60
2022-10-16T15:30:26.021Z,18.60
2022-10-16T15:32:55.639Z,18.50
2022-10-16T15:35:23.524Z,18.40
2022-10-16T15:37:51.657Z,18.20
2022-10-16T15:40:19.876Z,18.20
2022-10-16T15:42:47.876Z,18.10
2022-10-16T15:45:15.807Z,18.10
2022-10-16T15:47:45.813Z,18.10
2022-10-16T15:50:15.909Z,18.00
2022-10-16T15:52:44.063Z,17.90
2022-10-16T15:55:12.700Z,17.70
2022-10-16T15:57:41.703Z,17.70
2022-10-16T16:00:10.781Z,17.50
2022-10-16T16:02:42.273Z,17.50
2022-10-16T16:05:10.765Z,17.50
2022-10-16T16:07:43.824Z,17.40
2022-10-16T16:10:12.325Z,17.40
2022-10-16T16:12:51.451Z,17.20
2022-10-16T16:15:19.766Z,17.10
2022-10-16T16:17:47.979Z,17.00
2022-10-16T16:20:15.899Z,16.90
2022-10-16T16:22:45.252Z,16.70
2022-10-16T16:25:13.202Z,16.70
2022-10-16T16:27:41.095Z,16.40
2022-10-16T16:30:09.323Z,16.50
2022-10-16T16:32:37.155Z,16.20
2022-10-16T16:35:06.249Z,16.00
2022-10-16T16:37:34.399Z,15.70
2022-10-16T16:40:04.326Z,15.60
2022-10-16T16:42:32.349Z,15.60
2022-10-16T16:45:00.412Z,15.40
2022-10-16T16:47:28.497Z,15.40
2022-10-16T16:49:56.506Z,15.30
2022-10-16T16:52:24.381Z,15.30
2022-10-16T16:54:53.259Z,15.20
2022-10-16T16:57:22.548Z,15.10
2022-10-16T16:59:52.510Z,15.10
2022-10-16T17:02:20.432Z,15.20
2022-10-16T17:04:48.345Z,15.00
2022-10-16T17:07:17.517Z,15.00
2022-10-16T17:09:46.360Z,15.00
2022-10-16T17:12:14.273Z,14.80
2022-10-16T17:14:43.569Z,14.70
2022-10-16T17:17:11.500Z,14.70
2022-10-16T17:19:39.467Z,14.60
2022-10-16T17:22:07.279Z,14.50
2022-10-16T17:24:35.243Z,14.40
2022-10-16T17:27:03.701Z,14.30
2022-10-16T17:29:31.492Z,14.20
2022-10-16T17:32:00.734Z,14.10
2022-10-16T17:34:28.543Z,14.00
2022-10-16T17:36:56.605Z,14.00
2022-10-16T17:39:27.393Z,13.90
2022-10-16T17:41:55.829Z,13.80
2022-10-16T17:44:23.948Z,13.80
2022-10-16T17:46:52.569Z,13.80
2022-10-16T17:49:22.086Z,13.70
2022-10-16T17:51:50.798Z,13.70
2022-10-16T17:54:18.632Z,13.60
2022-10-16T17:56:47.722Z,13.60
2022-10-16T17:59:15.663Z,13.60
2022-10-16T18:01:46.317Z,13.60
2022-10-16T18:04:15.719Z,13.50
2022-10-16T18:06:45.655Z,13.50
2022-10-16T18:09:15.512Z,13.60
2022-10-16T18:11:45.734Z,13.40
2022-10-16T18:14:14.350Z,13.30
2022-10-16T18:16:42.497Z,13.20
2022-10-16T18:19:12.903Z,13.20
2022-10-16T18:21:41.330Z,13.70
2022-10-16T18:24:11.016Z,14.10
2022-10-16T18:26:38.838Z,14.20
2022-10-16T18:29:06.796Z,14.20
2022-10-16T18:31:37.773Z,14.10
2022-10-16T18:34:08.383Z,14.20
2022-10-16T18:36:36.665Z,14.20
2022-10-16T18:39:09.170Z,14.20
2022-10-16T18:41:39.400Z,14.00
2022-10-16T18:44:07.746Z,13.80
2022-10-16T18:46:35.922Z,13.80
2022-10-16T18:49:04.836Z,13.80
2022-10-16T18:51:33.602Z,13.60
2022-10-16T18:54:02.721Z,13.60
2022-10-16T18:56:31.302Z,13.40
2022-10-16T18:59:01.525Z,13.20
2022-10-16T19:01:30.804Z,13.10
2022-10-16T19:03:59.765Z,12.90
2022-10-16T19:06:28.352Z,12.90
2022-10-16T19:08:56.387Z,13.00
2022-10-16T19:11:25.591Z,13.00
2022-10-16T19:13:55.010Z,12.90
2022-10-16T19:16:25.205Z,12.90
2022-10-16T19:18:53.937Z,12.90
2022-10-16T19:21:22.276Z,12.90
2022-10-16T19:23:52.699Z,12.90
2022-10-16T19:26:20.937Z,12.90
2022-10-16T19:28:48.992Z,12.80
2022-10-16T19:31:18.430Z,12.80
2022-10-16T19:33:47.817Z,12.70
2022-10-16T19:36:17.181Z,12.90
2022-10-16T19:38:45.938Z,13.10
2022-10-16T19:41:14.557Z,13.00
2022-10-16T19:43:42.550Z,13.00
2022-10-16T19:46:11.956Z,13.00
2022-10-16T19:48:40.690Z,13.00
2022-10-16T19:51:13.186Z,13.20
2022-10-16T19:53:41.222Z,13.40
2022-10-16T19:56:12.784Z,13.40
2022-10-16T19:58:40.690Z,13.60
2022-10-16T20:01:08.530Z,13.70
2022-10-16T20:03:36.571Z,13.70
2022-10-16T20:06:06.848Z,13.60
2022-10-16T20:08:36.547Z,13.50
2022-10-16T20:11:04.689Z,13.30
2022-10-16T20:13:32.789Z,13.20
2022-10-16T20:16:00.718Z,13.20
2022-10-16T20:18:28.680Z,13.30
2022-10-16T20:20:56.553Z,13.10
2022-10-16T20:23:24.806Z,13.00
2022-10-16T20:25:58.143Z,12.90
2022-10-16T20:28:28.465Z,13.10
2022-10-16T20:30:58.503Z,13.00
2022-10-16T20:33:26.298Z,12.80
2022-10-16T20:35:54.286Z,12.90
2022-10-16T20:38:22.040Z,12.70
2022-10-16T20:40:52.212Z,12.70
2022-10-16T20:43:21.325Z,12.60
2022-10-16T20:46:00.154Z,12.50
2022-10-16T20:48:28.035Z,12.50
2022-10-16T20:50:55.958Z,12.30
2022-10-16T20:53:23.795Z,12.30
2022-10-16T20:55:51.722Z,12.30
2022-10-16T20:58:20.867Z,12.30
2022-10-16T21:00:51.081Z,12.40
2022-10-16T21:03:18.983Z,12.50
2022-10-16T21:05:46.896Z,12.50
2022-10-16T21:08:14.776Z,12.60
2022-10-16T21:10:42.653Z,12.60
2022-10-16T21:13:10.465Z,12.60
2022-10-16T21:15:39.698Z,12.60
2022-10-16T21:18:07.481Z,12.70
2022-10-16T21:20:42.670Z,12.70
2022-10-16T21:23:10.503Z,12.90
2022-10-16T21:25:38.321Z,13.00
2022-10-16T21:28:06.328Z,13.10
2022-10-16T21:30:34.171Z,13.00
2022-10-16T21:33:03.583Z,12.90
2022-10-16T21:35:31.850Z,12.90
2022-10-16T21:38:00.737Z,12.80
2022-10-16T21:40:29.846Z,12.90
2022-10-16T21:42:57.697Z,12.80
2022-10-16T21:45:25.565Z,12.80
2022-10-16T21:47:53.497Z,12.80
2022-10-16T21:50:22.629Z,12.80
2022-10-16T21:52:50.524Z,12.80
2022-10-16T21:55:18.456Z,12.80
2022-10-16T21:57:46.300Z,12.80
2022-10-16T22:00:14.639Z,12.70
2022-10-16T22:02:42.462Z,12.80
2022-10-16T22:05:10.270Z,12.80
2022-10-16T22:07:39.590Z,12.80
2022-10-16T22:10:07.923Z,12.70
2022-10-16T22:12:35.781Z,12.70
2022-10-16T22:15:03.650Z,12.70
2022-10-16T22:17:31.443Z,12.90
2022-10-16T22:20:01.567Z,12.90
2022-10-16T22:22:29.437Z,12.90
2022-10-16T22:24:58.570Z,12.80
2022-10-16T22:27:26.867Z,12.60
2022-10-16T22:29:55.049Z,12.50
2022-10-16T22:32:23.061Z,12.40
2022-10-16T22:34:50.952Z,12.40
2022-10-16T22:37:18.732Z,12.50
2022-10-16T22:39:46.632Z,12.40
2022-10-16T22:42:15.793Z,12.30
2022-10-16T22:44:43.819Z,12.20
2022-10-16T22:47:11.665Z,12.20
2022-10-16T22:49:40.670Z,12.10
2022-10-16T22:52:08.538Z,12.10
2022-10-16T22:54:36.534Z,12.10
2022-10-16T22:57:04.577Z,12.10
2022-10-16T22:59:33.997Z,12.10
2022-10-16T23:02:01.864Z,12.20
2022-10-16T23:04:29.803Z,12.20
2022-10-16T23:06:57.892Z,12.30
2022-10-16T23:09:25.934Z,12.30
2022-10-16T23:11:55.853Z,12.40
2022-10-16T23:14:23.793Z,12.40
2022-10-16T23:16:52.944Z,12.50
2022-10-16T23:19:20.794Z,12.70
2022-10-16T23:21:48.644Z,12.80
2022-10-16T23:24:16.508Z,12.90
2022-10-16T23:26:44.339Z,12.90
2022-10-16T23:29:12.299Z,12.90
2022-10-16T23:31:40.434Z,12.90
2022-10-16T23:34:09.760Z,13.00
2022-10-16T23:36:37.736Z,13.00
2022-10-16T23:39:06.125Z,13.00
2022-10-16T23:41:33.963Z,13.10
2022-10-16T23:44:01.809Z,13.10
2022-10-16T23:46:29.699Z,13.10
2022-10-16T23:48:57.741Z,13.20
2022-10-16T23:51:26.986Z,13.20
2022-10-16T23:53:54.894Z,13.20
2022-10-16T23:56:22.946Z,13.20
2022-10-16T23:58:50.739Z,13.20
